sensor_id;sensor_type;location;lat;lon;timestamp;P1;durP1;ratioP1;P2;durP2;ratioP2
64816;SDS011;53289;45.602;11.904;2023-02-15T00:01:44;122.18;;;58.75;;
64816;SDS011;53289;45.602;11.904;2023-02-15T00:04:12;107.68;;;54.35;;
64816;SDS011;53289;45.602;11.904;2023-02-15T00:09:10;104.65;;;52.25;;
64816;SDS011;53289;45.602;11.904;2023-02-15T00:11:36;106.82;;;55.05;;
64816;SDS011;53289;45.602;11.904;2023-02-15T00:14:13;98.75;;;51.00;;
64816;SDS011;53289;45.602;11.904;2023-02-15T00:16:42;90.82;;;46.38;;
64816;SDS011;53289;45.602;11.904;2023-02-15T00:21:54;92.97;;;46.05;;
64816;SDS011;53289;45.602;11.904;2023-02-15T00:24:20;93.93;;;48.03;;
64816;SDS011;53289;45.602;11.904;2023-02-15T00:26:47;75.97;;;43.63;;
64816;SDS011;53289;45.602;11.904;2023-02-15T00:29:15;122.65;;;59.35;;
64816;SDS011;53289;45.602;11.904;2023-02-15T00:31:42;117.80;;;62.67;;
64816;SDS011;53289;45.602;11.904;2023-02-15T00:34:12;95.93;;;48.88;;
64816;SDS011;53289;45.602;11.904;2023-02-15T00:36:43;88.38;;;45.10;;
64816;SDS011;53289;45.602;11.904;2023-02-15T00:39:10;98.32;;;48.50;;
64816;SDS011;53289;45.602;11.904;2023-02-15T00:41:36;109.18;;;54.90;;
64816;SDS011;53289;45.602;11.904;2023-02-15T00:44:02;100.10;;;52.40;;
64816;SDS011;53289;45.602;11.904;2023-02-15T00:46:29;82.65;;;43.70;;
64816;SDS011;53289;45.602;11.904;2023-02-15T00:48:55;88.65;;;46.20;;
64816;SDS011;53289;45.602;11.904;2023-02-15T00:51:22;98.97;;;50.63;;
64816;SDS011;53289;45.602;11.904;2023-02-15T00:53:48;105.28;;;55.15;;
64816;SDS011;53289;45.602;11.904;2023-02-15T00:56:14;107.90;;;53.70;;
64816;SDS011;53289;45.602;11.904;2023-02-15T00:58:40;101.15;;;52.38;;
64816;SDS011;53289;45.602;11.904;2023-02-15T01:01:08;90.82;;;48.50;;
64816;SDS011;53289;45.602;11.904;2023-02-15T01:03:36;102.38;;;49.63;;
64816;SDS011;53289;45.602;11.904;2023-02-15T01:06:03;103.28;;;50.72;;
64816;SDS011;53289;45.602;11.904;2023-02-15T01:08:30;87.75;;;47.28;;
64816;SDS011;53289;45.602;11.904;2023-02-15T01:10:56;76.15;;;42.92;;
64816;SDS011;53289;45.602;11.904;2023-02-15T01:13:27;86.13;;;45.25;;
64816;SDS011;53289;45.602;11.904;2023-02-15T01:15:54;90.55;;;48.80;;
64816;SDS011;53289;45.602;11.904;2023-02-15T01:18:20;81.43;;;44.40;;
64816;SDS011;53289;45.602;11.904;2023-02-15T01:20:47;75.18;;;38.88;;
64816;SDS011;53289;45.602;11.904;2023-02-15T01:23:14;59.70;;;33.88;;
64816;SDS011;53289;45.602;11.904;2023-02-15T01:25:40;100.95;;;49.08;;
64816;SDS011;53289;45.602;11.904;2023-02-15T01:28:06;84.90;;;45.05;;
64816;SDS011;53289;45.602;11.904;2023-02-15T01:30:33;107.15;;;55.38;;
64816;SDS011;53289;45.602;11.904;2023-02-15T01:32:59;100.07;;;50.65;;
64816;SDS011;53289;45.602;11.904;2023-02-15T01:35:28;107.82;;;56.28;;
64816;SDS011;53289;45.602;11.904;2023-02-15T01:37:56;98.75;;;52.55;;
64816;SDS011;53289;45.602;11.904;2023-02-15T01:42:58;101.47;;;53.65;;
64816;SDS011;53289;45.602;11.904;2023-02-15T01:48:02;111.40;;;59.55;;
64816;SDS011;53289;45.602;11.904;2023-02-15T01:50:47;110.18;;;55.40;;
64816;SDS011;53289;45.602;11.904;2023-02-15T01:53:19;98.65;;;50.85;;
64816;SDS011;53289;45.602;11.904;2023-02-15T01:55:57;74.95;;;41.28;;
64816;SDS011;53289;45.602;11.904;2023-02-15T01:58:28;101.22;;;51.60;;
64816;SDS011;53289;45.602;11.904;2023-02-15T02:00:57;120.20;;;61.33;;
64816;SDS011;53289;45.602;11.904;2023-02-15T02:06:22;95.85;;;50.65;;
64816;SDS011;53289;45.602;11.904;2023-02-15T02:08:49;103.32;;;51.22;;
64816;SDS011;53289;45.602;11.904;2023-02-15T02:11:16;94.38;;;46.63;;
64816;SDS011;53289;45.602;11.904;2023-02-15T02:13:43;98.82;;;48.78;;
64816;SDS011;53289;45.602;11.904;2023-02-15T02:24:53;71.70;;;39.80;;
64816;SDS011;53289;45.602;11.904;2023-02-15T02:35:23;122.70;;;63.15;;
64816;SDS011;53289;45.602;11.904;2023-02-15T02:43:35;122.20;;;57.90;;
64816;SDS011;53289;45.602;11.904;2023-02-15T02:46:11;105.57;;;50.60;;
64816;SDS011;53289;45.602;11.904;2023-02-15T02:48:46;94.18;;;46.63;;
64816;SDS011;53289;45.602;11.904;2023-02-15T02:51:13;96.65;;;50.17;;
64816;SDS011;53289;45.602;11.904;2023-02-15T02:53:45;116.45;;;56.72;;
64816;SDS011;53289;45.602;11.904;2023-02-15T02:56:22;95.43;;;48.38;;
64816;SDS011;53289;45.602;11.904;2023-02-15T02:59:00;103.20;;;48.30;;
64816;SDS011;53289;45.602;11.904;2023-02-15T03:02:02;74.07;;;38.90;;
64816;SDS011;53289;45.602;11.904;2023-02-15T03:04:31;83.97;;;44.45;;
64816;SDS011;53289;45.602;11.904;2023-02-15T03:07:03;117.35;;;57.60;;
64816;SDS011;53289;45.602;11.904;2023-02-15T03:09:41;119.57;;;59.45;;
64816;SDS011;53289;45.602;11.904;2023-02-15T03:12:13;116.30;;;55.42;;
64816;SDS011;53289;45.602;11.904;2023-02-15T03:14:43;92.93;;;45.13;;
64816;SDS011;53289;45.602;11.904;2023-02-15T03:17:12;102.80;;;51.92;;
64816;SDS011;53289;45.602;11.904;2023-02-15T03:19:39;100.68;;;50.88;;
64816;SDS011;53289;45.602;11.904;2023-02-15T03:22:12;112.35;;;58.55;;
64816;SDS011;53289;45.602;11.904;2023-02-15T03:27:15;110.80;;;54.35;;
64816;SDS011;53289;45.602;11.904;2023-02-15T03:29:49;110.28;;;55.80;;
64816;SDS011;53289;45.602;11.904;2023-02-15T03:32:18;83.97;;;45.08;;
64816;SDS011;53289;45.602;11.904;2023-02-15T03:34:45;94.97;;;50.08;;
64816;SDS011;53289;45.602;11.904;2023-02-15T03:37:26;80.60;;;42.42;;
64816;SDS011;53289;45.602;11.904;2023-02-15T03:39:54;82.85;;;44.75;;
64816;SDS011;53289;45.602;11.904;2023-02-15T03:42:44;107.20;;;53.70;;
64816;SDS011;53289;45.602;11.904;2023-02-15T03:45:15;110.43;;;54.80;;
64816;SDS011;53289;45.602;11.904;2023-02-15T03:47:48;100.65;;;49.30;;
64816;SDS011;53289;45.602;11.904;2023-02-15T03:50:27;103.90;;;54.47;;
64816;SDS011;53289;45.602;11.904;2023-02-15T03:53:15;96.22;;;49.85;;
64816;SDS011;53289;45.602;11.904;2023-02-15T03:55:53;85.88;;;44.33;;
64816;SDS011;53289;45.602;11.904;2023-02-15T03:58:20;91.00;;;46.47;;
64816;SDS011;53289;45.602;11.904;2023-02-15T04:01:10;106.97;;;55.95;;
64816;SDS011;53289;45.602;11.904;2023-02-15T04:04:28;108.32;;;52.17;;
64816;SDS011;53289;45.602;11.904;2023-02-15T04:06:58;115.32;;;59.03;;
64816;SDS011;53289;45.602;11.904;2023-02-15T04:09:24;111.70;;;56.85;;
64816;SDS011;53289;45.602;11.904;2023-02-15T04:12:09;74.45;;;39.90;;
64816;SDS011;53289;45.602;11.904;2023-02-15T04:14:35;80.28;;;43.08;;
64816;SDS011;53289;45.602;11.904;2023-02-15T04:19:48;117.95;;;58.92;;
64816;SDS011;53289;45.602;11.904;2023-02-15T04:22:33;116.20;;;59.28;;
64816;SDS011;53289;45.602;11.904;2023-02-15T04:25:17;102.18;;;52.05;;
64816;SDS011;53289;45.602;11.904;2023-02-15T04:27:44;119.55;;;58.55;;
64816;SDS011;53289;45.602;11.904;2023-02-15T04:30:13;114.07;;;60.28;;
64816;SDS011;53289;45.602;11.904;2023-02-15T04:32:40;101.93;;;55.55;;
64816;SDS011;53289;45.602;11.904;2023-02-15T04:35:07;95.45;;;49.05;;
64816;SDS011;53289;45.602;11.904;2023-02-15T04:37:34;92.10;;;48.63;;
64816;SDS011;53289;45.602;11.904;2023-02-15T04:40:00;107.90;;;54.08;;
64816;SDS011;53289;45.602;11.904;2023-02-15T04:42:26;106.57;;;52.83;;
64816;SDS011;53289;45.602;11.904;2023-02-15T04:44:53;115.22;;;59.97;;
64816;SDS011;53289;45.602;11.904;2023-02-15T04:47:19;119.75;;;61.10;;
64816;SDS011;53289;45.602;11.904;2023-02-15T04:49:45;127.72;;;65.03;;
64816;SDS011;53289;45.602;11.904;2023-02-15T04:52:11;100.20;;;50.80;;
64816;SDS011;53289;45.602;11.904;2023-02-15T04:54:38;105.78;;;52.35;;
64816;SDS011;53289;45.602;11.904;2023-02-15T04:57:04;114.20;;;57.15;;
64816;SDS011;53289;45.602;11.904;2023-02-15T04:59:30;107.43;;;57.30;;
64816;SDS011;53289;45.602;11.904;2023-02-15T05:01:56;89.00;;;44.42;;
64816;SDS011;53289;45.602;11.904;2023-02-15T05:04:22;74.72;;;40.78;;
64816;SDS011;53289;45.602;11.904;2023-02-15T05:06:49;105.15;;;51.65;;
64816;SDS011;53289;45.602;11.904;2023-02-15T05:09:15;116.63;;;57.45;;
64816;SDS011;53289;45.602;11.904;2023-02-15T05:11:41;93.93;;;49.03;;
64816;SDS011;53289;45.602;11.904;2023-02-15T05:14:07;85.20;;;43.63;;
64816;SDS011;53289;45.602;11.904;2023-02-15T05:16:33;112.25;;;59.92;;
64816;SDS011;53289;45.602;11.904;2023-02-15T05:18:59;110.00;;;55.80;;
64816;SDS011;53289;45.602;11.904;2023-02-15T05:21:25;99.20;;;50.00;;
64816;SDS011;53289;45.602;11.904;2023-02-15T05:23:51;105.97;;;54.70;;
64816;SDS011;53289;45.602;11.904;2023-02-15T05:26:18;104.95;;;52.42;;
64816;SDS011;53289;45.602;11.904;2023-02-15T05:29:05;92.20;;;44.88;;
64816;SDS011;53289;45.602;11.904;2023-02-15T05:31:31;93.38;;;47.17;;
64816;SDS011;53289;45.602;11.904;2023-02-15T05:33:58;93.68;;;48.47;;
64816;SDS011;53289;45.602;11.904;2023-02-15T05:36:24;97.55;;;49.17;;
64816;SDS011;53289;45.602;11.904;2023-02-15T05:38:50;108.60;;;55.85;;
64816;SDS011;53289;45.602;11.904;2023-02-15T05:41:15;108.18;;;55.25;;
64816;SDS011;53289;45.602;11.904;2023-02-15T05:43:41;85.88;;;42.35;;
64816;SDS011;53289;45.602;11.904;2023-02-15T05:46:08;75.55;;;40.42;;
64816;SDS011;53289;45.602;11.904;2023-02-15T05:48:34;72.25;;;38.40;;
64816;SDS011;53289;45.602;11.904;2023-02-15T05:51:07;83.43;;;41.00;;
64816;SDS011;53289;45.602;11.904;2023-02-15T05:58:32;102.60;;;48.55;;
64816;SDS011;53289;45.602;11.904;2023-02-15T06:01:09;104.28;;;50.38;;
64816;SDS011;53289;45.602;11.904;2023-02-15T06:03:39;100.53;;;48.05;;
64816;SDS011;53289;45.602;11.904;2023-02-15T06:06:05;100.88;;;50.85;;
64816;SDS011;53289;45.602;11.904;2023-02-15T06:08:32;94.13;;;48.65;;
64816;SDS011;53289;45.602;11.904;2023-02-15T06:11:00;98.05;;;48.72;;
64816;SDS011;53289;45.602;11.904;2023-02-15T06:13:26;99.63;;;45.28;;
64816;SDS011;53289;45.602;11.904;2023-02-15T06:15:52;80.53;;;40.88;;
64816;SDS011;53289;45.602;11.904;2023-02-15T06:18:18;85.60;;;44.42;;
64816;SDS011;53289;45.602;11.904;2023-02-15T06:20:47;83.50;;;41.65;;
64816;SDS011;53289;45.602;11.904;2023-02-15T06:23:14;94.38;;;46.53;;
64816;SDS011;53289;45.602;11.904;2023-02-15T06:25:40;102.13;;;50.72;;
64816;SDS011;53289;45.602;11.904;2023-02-15T06:28:06;96.60;;;48.72;;
64816;SDS011;53289;45.602;11.904;2023-02-15T06:30:32;90.10;;;46.42;;
64816;SDS011;53289;45.602;11.904;2023-02-15T06:32:58;93.15;;;45.33;;
64816;SDS011;53289;45.602;11.904;2023-02-15T06:35:24;97.07;;;49.08;;
64816;SDS011;53289;45.602;11.904;2023-02-15T06:37:50;101.05;;;53.53;;
64816;SDS011;53289;45.602;11.904;2023-02-15T06:40:16;106.75;;;52.70;;
64816;SDS011;53289;45.602;11.904;2023-02-15T06:42:42;106.57;;;52.00;;
64816;SDS011;53289;45.602;11.904;2023-02-15T06:45:09;95.13;;;44.85;;
64816;SDS011;53289;45.602;11.904;2023-02-15T06:47:35;99.65;;;47.30;;
64816;SDS011;53289;45.602;11.904;2023-02-15T06:50:02;99.38;;;46.80;;
64816;SDS011;53289;45.602;11.904;2023-02-15T06:52:29;93.70;;;46.70;;
64816;SDS011;53289;45.602;11.904;2023-02-15T06:54:55;91.93;;;46.42;;
64816;SDS011;53289;45.602;11.904;2023-02-15T06:57:21;90.05;;;47.08;;
64816;SDS011;53289;45.602;11.904;2023-02-15T06:59:47;93.70;;;47.53;;
64816;SDS011;53289;45.602;11.904;2023-02-15T07:02:13;73.07;;;39.58;;
64816;SDS011;53289;45.602;11.904;2023-02-15T07:04:39;94.07;;;47.97;;
64816;SDS011;53289;45.602;11.904;2023-02-15T07:07:08;84.38;;;42.35;;
64816;SDS011;53289;45.602;11.904;2023-02-15T07:09:34;92.28;;;47.92;;
64816;SDS011;53289;45.602;11.904;2023-02-15T07:12:00;80.45;;;40.33;;
64816;SDS011;53289;45.602;11.904;2023-02-15T07:17:10;74.30;;;38.78;;
64816;SDS011;53289;45.602;11.904;2023-02-15T07:19:36;67.68;;;35.45;;
64816;SDS011;53289;45.602;11.904;2023-02-15T07:22:02;85.05;;;43.35;;
64816;SDS011;53289;45.602;11.904;2023-02-15T07:24:30;66.18;;;37.17;;
64816;SDS011;53289;45.602;11.904;2023-02-15T07:26:56;61.28;;;34.35;;
64816;SDS011;53289;45.602;11.904;2023-02-15T07:29:22;70.50;;;37.55;;
64816;SDS011;53289;45.602;11.904;2023-02-15T07:31:49;90.57;;;47.40;;
64816;SDS011;53289;45.602;11.904;2023-02-15T07:34:15;102.43;;;52.35;;
64816;SDS011;53289;45.602;11.904;2023-02-15T07:36:41;70.53;;;37.20;;
64816;SDS011;53289;45.602;11.904;2023-02-15T07:39:09;81.97;;;44.40;;
64816;SDS011;53289;45.602;11.904;2023-02-15T07:41:35;90.63;;;47.30;;
64816;SDS011;53289;45.602;11.904;2023-02-15T07:44:01;89.93;;;49.78;;
64816;SDS011;53289;45.602;11.904;2023-02-15T07:46:27;86.55;;;45.20;;
64816;SDS011;53289;45.602;11.904;2023-02-15T07:48:53;77.10;;;41.90;;
64816;SDS011;53289;45.602;11.904;2023-02-15T07:51:19;73.68;;;41.58;;
64816;SDS011;53289;45.602;11.904;2023-02-15T07:53:45;66.25;;;37.50;;
64816;SDS011;53289;45.602;11.904;2023-02-15T07:56:12;83.05;;;47.10;;
64816;SDS011;53289;45.602;11.904;2023-02-15T07:58:39;70.90;;;40.38;;
64816;SDS011;53289;45.602;11.904;2023-02-15T08:03:48;58.95;;;31.48;;
64816;SDS011;53289;45.602;11.904;2023-02-15T08:06:14;58.22;;;29.52;;
64816;SDS011;53289;45.602;11.904;2023-02-15T08:08:41;60.83;;;31.25;;
64816;SDS011;53289;45.602;11.904;2023-02-15T08:16:59;57.28;;;30.30;;
64816;SDS011;53289;45.602;11.904;2023-02-15T08:19:31;43.35;;;25.20;;
64816;SDS011;53289;45.602;11.904;2023-02-15T08:21:59;56.22;;;28.95;;
64816;SDS011;53289;45.602;11.904;2023-02-15T08:24:31;52.92;;;28.80;;
64816;SDS011;53289;45.602;11.904;2023-02-15T08:27:05;52.47;;;27.42;;
64816;SDS011;53289;45.602;11.904;2023-02-15T08:29:34;54.80;;;28.88;;
64816;SDS011;53289;45.602;11.904;2023-02-15T08:32:03;53.78;;;28.95;;
64816;SDS011;53289;45.602;11.904;2023-02-15T08:34:35;60.35;;;31.45;;
64816;SDS011;53289;45.602;11.904;2023-02-15T08:37:04;52.65;;;28.33;;
64816;SDS011;53289;45.602;11.904;2023-02-15T08:39:31;58.38;;;29.35;;
64816;SDS011;53289;45.602;11.904;2023-02-15T08:44:26;67.70;;;36.13;;
64816;SDS011;53289;45.602;11.904;2023-02-15T08:46:52;56.40;;;32.10;;
64816;SDS011;53289;45.602;11.904;2023-02-15T08:49:20;70.25;;;37.13;;
64816;SDS011;53289;45.602;11.904;2023-02-15T08:51:47;72.03;;;36.45;;
64816;SDS011;53289;45.602;11.904;2023-02-15T08:54:15;61.08;;;31.02;;
64816;SDS011;53289;45.602;11.904;2023-02-15T08:56:46;62.55;;;35.00;;
64816;SDS011;53289;45.602;11.904;2023-02-15T08:59:19;64.45;;;35.03;;
64816;SDS011;53289;45.602;11.904;2023-02-15T09:01:47;58.72;;;32.60;;
64816;SDS011;53289;45.602;11.904;2023-02-15T09:04:14;70.40;;;38.78;;
64816;SDS011;53289;45.602;11.904;2023-02-15T09:06:41;59.85;;;32.33;;
64816;SDS011;53289;45.602;11.904;2023-02-15T09:09:09;66.15;;;35.63;;
64816;SDS011;53289;45.602;11.904;2023-02-15T09:11:37;65.28;;;36.80;;
64816;SDS011;53289;45.602;11.904;2023-02-15T09:14:09;67.38;;;37.15;;
64816;SDS011;53289;45.602;11.904;2023-02-15T09:16:39;66.07;;;36.33;;
64816;SDS011;53289;45.602;11.904;2023-02-15T09:19:06;63.17;;;36.38;;
64816;SDS011;53289;45.602;11.904;2023-02-15T09:21:35;69.78;;;37.72;;
64816;SDS011;53289;45.602;11.904;2023-02-15T09:24:03;64.00;;;35.35;;
64816;SDS011;53289;45.602;11.904;2023-02-15T09:26:31;58.72;;;34.22;;
64816;SDS011;53289;45.602;11.904;2023-02-15T09:29:00;65.05;;;35.17;;
64816;SDS011;53289;45.602;11.904;2023-02-15T09:31:27;61.80;;;35.42;;
64816;SDS011;53289;45.602;11.904;2023-02-15T09:33:55;62.65;;;34.92;;
64816;SDS011;53289;45.602;11.904;2023-02-15T09:36:30;58.33;;;33.55;;
64816;SDS011;53289;45.602;11.904;2023-02-15T10:03:48;51.40;;;30.25;;
64816;SDS011;53289;45.602;11.904;2023-02-15T10:06:25;50.20;;;28.48;;
64816;SDS011;53289;45.602;11.904;2023-02-15T10:11:56;48.35;;;28.52;;
64816;SDS011;53289;45.602;11.904;2023-02-15T10:22:59;45.42;;;26.52;;
64816;SDS011;53289;45.602;11.904;2023-02-15T10:28:17;46.50;;;28.35;;
64816;SDS011;53289;45.602;11.904;2023-02-15T10:30:49;44.05;;;25.45;;
64816;SDS011;53289;45.602;11.904;2023-02-15T10:54:56;53.53;;;33.20;;
64816;SDS011;53289;45.602;11.904;2023-02-15T11:00:12;50.53;;;30.42;;
64816;SDS011;53289;45.602;11.904;2023-02-15T11:06:07;45.50;;;26.50;;
64816;SDS011;53289;45.602;11.904;2023-02-15T11:08:57;48.42;;;28.13;;
64816;SDS011;53289;45.602;11.904;2023-02-15T11:11:29;45.67;;;27.58;;
64816;SDS011;53289;45.602;11.904;2023-02-15T11:14:03;41.05;;;26.27;;
64816;SDS011;53289;45.602;11.904;2023-02-15T11:16:39;41.72;;;25.58;;
64816;SDS011;53289;45.602;11.904;2023-02-15T11:21:48;45.55;;;27.20;;
64816;SDS011;53289;45.602;11.904;2023-02-15T11:24:18;39.60;;;25.02;;
64816;SDS011;53289;45.602;11.904;2023-02-15T11:26:50;41.10;;;26.58;;
64816;SDS011;53289;45.602;11.904;2023-02-15T11:32:21;38.05;;;23.98;;
64816;SDS011;53289;45.602;11.904;2023-02-15T11:34:53;37.10;;;22.13;;
64816;SDS011;53289;45.602;11.904;2023-02-15T11:37:40;33.80;;;21.98;;
64816;SDS011;53289;45.602;11.904;2023-02-15T11:40:24;35.92;;;22.90;;
64816;SDS011;53289;45.602;11.904;2023-02-15T11:42:56;41.50;;;25.02;;
64816;SDS011;53289;45.602;11.904;2023-02-15T11:45:30;39.75;;;24.60;;
64816;SDS011;53289;45.602;11.904;2023-02-15T11:47:58;35.33;;;23.17;;
64816;SDS011;53289;45.602;11.904;2023-02-15T11:50:27;35.95;;;22.80;;
64816;SDS011;53289;45.602;11.904;2023-02-15T11:52:58;38.05;;;24.40;;
64816;SDS011;53289;45.602;11.904;2023-02-15T11:55:27;33.73;;;22.00;;
64816;SDS011;53289;45.602;11.904;2023-02-15T11:58:21;43.22;;;27.13;;
64816;SDS011;53289;45.602;11.904;2023-02-15T12:01:28;41.50;;;26.25;;
64816;SDS011;53289;45.602;11.904;2023-02-15T12:06:59;40.97;;;26.15;;
64816;SDS011;53289;45.602;11.904;2023-02-15T12:09:40;38.90;;;25.05;;
64816;SDS011;53289;45.602;11.904;2023-02-15T12:12:27;43.05;;;27.55;;
64816;SDS011;53289;45.602;11.904;2023-02-15T12:14:55;38.92;;;24.52;;
64816;SDS011;53289;45.602;11.904;2023-02-15T12:17:48;42.47;;;26.80;;
64816;SDS011;53289;45.602;11.904;2023-02-15T12:23:32;40.28;;;26.17;;
64816;SDS011;53289;45.602;11.904;2023-02-15T12:31:19;37.97;;;24.02;;
64816;SDS011;53289;45.602;11.904;2023-02-15T12:33:56;40.22;;;23.65;;
64816;SDS011;53289;45.602;11.904;2023-02-15T12:36:26;35.28;;;21.58;;
64816;SDS011;53289;45.602;11.904;2023-02-15T12:39:05;36.58;;;22.83;;
64816;SDS011;53289;45.602;11.904;2023-02-15T12:41:52;32.25;;;19.98;;
64816;SDS011;53289;45.602;11.904;2023-02-15T12:44:35;36.58;;;23.52;;
64816;SDS011;53289;45.602;11.904;2023-02-15T12:49:29;34.38;;;21.98;;
64816;SDS011;53289;45.602;11.904;2023-02-15T12:52:06;36.78;;;23.40;;
64816;SDS011;53289;45.602;11.904;2023-02-15T12:54:47;34.60;;;21.55;;
64816;SDS011;53289;45.602;11.904;2023-02-15T12:57:26;31.70;;;21.23;;
64816;SDS011;53289;45.602;11.904;2023-02-15T12:59:58;40.90;;;24.67;;
64816;SDS011;53289;45.602;11.904;2023-02-15T13:02:47;40.20;;;25.65;;
64816;SDS011;53289;45.602;11.904;2023-02-15T13:05:32;31.65;;;20.65;;
64816;SDS011;53289;45.602;11.904;2023-02-15T13:08:08;35.13;;;22.73;;
64816;SDS011;53289;45.602;11.904;2023-02-15T13:14:15;39.33;;;23.80;;
64816;SDS011;53289;45.602;11.904;2023-02-15T13:16:33;36.67;;;22.90;;
64816;SDS011;53289;45.602;11.904;2023-02-15T13:19:26;37.25;;;22.95;;
64816;SDS011;53289;45.602;11.904;2023-02-15T13:21:53;35.45;;;22.98;;
64816;SDS011;53289;45.602;11.904;2023-02-15T13:24:28;41.33;;;25.13;;
64816;SDS011;53289;45.602;11.904;2023-02-15T13:26:58;39.88;;;25.48;;
64816;SDS011;53289;45.602;11.904;2023-02-15T13:31:53;38.03;;;23.98;;
64816;SDS011;53289;45.602;11.904;2023-02-15T13:34:22;35.17;;;21.20;;
64816;SDS011;53289;45.602;11.904;2023-02-15T13:37:18;32.30;;;21.08;;
64816;SDS011;53289;45.602;11.904;2023-02-15T13:42:46;35.95;;;22.92;;
64816;SDS011;53289;45.602;11.904;2023-02-15T13:47:59;38.90;;;23.67;;
64816;SDS011;53289;45.602;11.904;2023-02-15T13:56:02;31.50;;;20.38;;
64816;SDS011;53289;45.602;11.904;2023-02-15T14:17:28;36.05;;;21.63;;
64816;SDS011;53289;45.602;11.904;2023-02-15T14:20:07;40.08;;;24.10;;
64816;SDS011;53289;45.602;11.904;2023-02-15T14:22:46;38.00;;;23.42;;
64816;SDS011;53289;45.602;11.904;2023-02-15T14:25:34;34.80;;;22.02;;
64816;SDS011;53289;45.602;11.904;2023-02-15T14:28:19;44.65;;;25.30;;
64816;SDS011;53289;45.602;11.904;2023-02-15T14:31:07;39.28;;;24.10;;
64816;SDS011;53289;45.602;11.904;2023-02-15T14:33:38;40.83;;;26.23;;
64816;SDS011;53289;45.602;11.904;2023-02-15T14:36:06;40.63;;;23.63;;
64816;SDS011;53289;45.602;11.904;2023-02-15T14:38:39;46.80;;;27.77;;
64816;SDS011;53289;45.602;11.904;2023-02-15T14:46:50;40.78;;;24.10;;
64816;SDS011;53289;45.602;11.904;2023-02-15T14:49:32;43.70;;;25.88;;
64816;SDS011;53289;45.602;11.904;2023-02-15T14:52:05;41.53;;;24.33;;
64816;SDS011;53289;45.602;11.904;2023-02-15T14:59:25;38.60;;;22.05;;
64816;SDS011;53289;45.602;11.904;2023-02-15T15:01:55;36.00;;;20.70;;
64816;SDS011;53289;45.602;11.904;2023-02-15T15:04:30;38.15;;;21.75;;
64816;SDS011;53289;45.602;11.904;2023-02-15T15:09:38;39.50;;;22.33;;
64816;SDS011;53289;45.602;11.904;2023-02-15T15:12:13;38.65;;;21.80;;
64816;SDS011;53289;45.602;11.904;2023-02-15T15:14:54;45.65;;;24.95;;
64816;SDS011;53289;45.602;11.904;2023-02-15T15:22:29;40.63;;;23.33;;
64816;SDS011;53289;45.602;11.904;2023-02-15T15:49:32;40.20;;;23.25;;
64816;SDS011;53289;45.602;11.904;2023-02-15T15:52:08;41.30;;;22.48;;
64816;SDS011;53289;45.602;11.904;2023-02-15T15:54:38;44.90;;;23.50;;
64816;SDS011;53289;45.602;11.904;2023-02-15T15:57:06;40.58;;;23.58;;
64816;SDS011;53289;45.602;11.904;2023-02-15T15:59:59;41.10;;;22.08;;
64816;SDS011;53289;45.602;11.904;2023-02-15T16:02:25;37.17;;;20.58;;
64816;SDS011;53289;45.602;11.904;2023-02-15T16:04:51;38.17;;;20.48;;
64816;SDS011;53289;45.602;11.904;2023-02-15T16:09:53;51.67;;;23.58;;
64816;SDS011;53289;45.602;11.904;2023-02-15T16:12:19;51.45;;;25.20;;
64816;SDS011;53289;45.602;11.904;2023-02-15T16:14:46;40.70;;;22.30;;
64816;SDS011;53289;45.602;11.904;2023-02-15T16:17:19;44.63;;;23.40;;
64816;SDS011;53289;45.602;11.904;2023-02-15T16:19:49;42.78;;;23.88;;
64816;SDS011;53289;45.602;11.904;2023-02-15T16:22:43;46.90;;;22.67;;
64816;SDS011;53289;45.602;11.904;2023-02-15T16:25:29;39.63;;;21.88;;
64816;SDS011;53289;45.602;11.904;2023-02-15T16:28:06;38.45;;;22.15;;
64816;SDS011;53289;45.602;11.904;2023-02-15T16:30:34;45.88;;;24.02;;
64816;SDS011;53289;45.602;11.904;2023-02-15T16:33:11;42.58;;;21.88;;
64816;SDS011;53289;45.602;11.904;2023-02-15T16:38:11;43.65;;;20.98;;
64816;SDS011;53289;45.602;11.904;2023-02-15T16:40:46;43.30;;;21.67;;
64816;SDS011;53289;45.602;11.904;2023-02-15T16:43:23;37.05;;;20.38;;
64816;SDS011;53289;45.602;11.904;2023-02-15T16:45:52;44.63;;;21.77;;
64816;SDS011;53289;45.602;11.904;2023-02-15T16:48:23;40.20;;;20.67;;
64816;SDS011;53289;45.602;11.904;2023-02-15T16:50:53;41.38;;;21.02;;
64816;SDS011;53289;45.602;11.904;2023-02-15T16:53:26;36.40;;;20.05;;
64816;SDS011;53289;45.602;11.904;2023-02-15T16:55:57;37.85;;;21.70;;
64816;SDS011;53289;45.602;11.904;2023-02-15T16:58:30;40.38;;;21.48;;
64816;SDS011;53289;45.602;11.904;2023-02-15T17:01:05;42.17;;;22.42;;
64816;SDS011;53289;45.602;11.904;2023-02-15T17:03:35;37.78;;;20.58;;
64816;SDS011;53289;45.602;11.904;2023-02-15T17:06:03;40.80;;;21.65;;
64816;SDS011;53289;45.602;11.904;2023-02-15T17:08:43;39.55;;;21.00;;
64816;SDS011;53289;45.602;11.904;2023-02-15T17:13:38;55.20;;;24.95;;
64816;SDS011;53289;45.602;11.904;2023-02-15T17:18:33;44.13;;;23.27;;
64816;SDS011;53289;45.602;11.904;2023-02-15T17:21:16;44.08;;;24.83;;
64816;SDS011;53289;45.602;11.904;2023-02-15T17:23:45;43.17;;;23.58;;
64816;SDS011;53289;45.602;11.904;2023-02-15T17:28:47;45.00;;;21.95;;
64816;SDS011;53289;45.602;11.904;2023-02-15T17:31:16;41.75;;;22.80;;
64816;SDS011;53289;45.602;11.904;2023-02-15T17:33:43;51.08;;;24.60;;
64816;SDS011;53289;45.602;11.904;2023-02-15T17:36:22;41.58;;;21.50;;
64816;SDS011;53289;45.602;11.904;2023-02-15T17:41:47;46.35;;;22.77;;
64816;SDS011;53289;45.602;11.904;2023-02-15T17:44:17;43.45;;;20.58;;
64816;SDS011;53289;45.602;11.904;2023-02-15T17:46:43;54.22;;;25.65;;
64816;SDS011;53289;45.602;11.904;2023-02-15T17:49:14;62.88;;;28.52;;
64816;SDS011;53289;45.602;11.904;2023-02-15T17:51:49;68.63;;;30.05;;
64816;SDS011;53289;45.602;11.904;2023-02-15T17:54:15;48.97;;;24.02;;
64816;SDS011;53289;45.602;11.904;2023-02-15T17:56:59;60.65;;;26.25;;
64816;SDS011;53289;45.602;11.904;2023-02-15T17:59:29;46.58;;;23.55;;
64816;SDS011;53289;45.602;11.904;2023-02-15T18:01:55;46.60;;;23.77;;
64816;SDS011;53289;45.602;11.904;2023-02-15T18:04:40;48.30;;;24.35;;
64816;SDS011;53289;45.602;11.904;2023-02-15T18:07:24;50.70;;;25.23;;
64816;SDS011;53289;45.602;11.904;2023-02-15T18:10:16;56.92;;;26.00;;
64816;SDS011;53289;45.602;11.904;2023-02-15T18:13:01;51.55;;;24.52;;
64816;SDS011;53289;45.602;11.904;2023-02-15T18:15:27;52.72;;;25.73;;
64816;SDS011;53289;45.602;11.904;2023-02-15T18:17:54;60.92;;;26.20;;
64816;SDS011;53289;45.602;11.904;2023-02-15T18:20:21;50.60;;;23.45;;
64816;SDS011;53289;45.602;11.904;2023-02-15T18:22:52;63.35;;;27.15;;
64816;SDS011;53289;45.602;11.904;2023-02-15T18:25:19;65.15;;;29.92;;
64816;SDS011;53289;45.602;11.904;2023-02-15T18:27:47;52.50;;;25.55;;
64816;SDS011;53289;45.602;11.904;2023-02-15T18:30:14;70.72;;;30.17;;